Time;durP1;ratioP1;P1;durP2;ratioP2;P2;SDS_P1;SDS_P2;PMS_P1;PMS_P2;Temp;Humidity;BMP_temperature;BMP_pressure;BME280_temperature;BME280_humidity;BME280_pressure;Samples;Min_cycle;Max_cycle;Signal;HPM_P1;HPM_P2
2021/09/22 04:15:23;;;;;;;18.93;12.00;;;;;;;6.04;99.94;100047.56;5943033;23;20018;-75
2021/09/22 04:17:49;;;;;;;17.85;13.00;;;;;;;6.04;100.00;100043.28;4994342;28;20281;-74
2021/09/22 04:20:14;;;;;;;15.60;12.50;;;;;;;5.95;100.00;100048.28;4995386;28;20022;-74
2021/09/22 04:22:40;;;;;;;17.27;13.38;;;;;;;5.95;100.00;100047.38;4995242;28;20123;-75
2021/09/22 04:25:06;;;;;;;18.30;13.95;;;;;;;5.93;100.00;100048.22;5001153;28;20421;-74
2021/09/22 04:27:32;;;;;;;21.23;13.93;;;;;;;5.98;100.00;100044.88;4994010;28;20108;-74
2021/09/22 04:29:58;;;;;;;18.33;13.77;;;;;;;5.96;100.00;100054.28;4976759;28;20483;-76
2021/09/22 04:32:24;;;;;;;16.42;13.27;;;;;;;5.93;100.00;100058.50;4981406;28;20027;-76
2021/09/22 04:34:49;;;;;;;17.45;13.10;;;;;;;5.92;100.00;100049.06;4975418;28;20081;-76
2021/09/22 04:37:14;;;;;;;20.17;14.00;;;;;;;5.97;100.00;100050.88;4983364;28;20026;-76
2021/09/22 04:39:40;;;;;;;19.20;13.55;;;;;;;6.00;100.00;100050.94;4982227;28;20019;-76
2021/09/22 04:42:05;;;;;;;19.80;13.48;;;;;;;5.91;100.00;100057.63;4978805;28;20448;-76
2021/09/22 04:44:31;;;;;;;20.38;14.38;;;;;;;5.88;100.00;100047.22;4975945;28;20046;-76
2021/09/22 04:46:56;;;;;;;17.60;13.48;;;;;;;5.86;100.00;100045.47;4977977;28;20022;-76
2021/09/22 04:49:21;;;;;;;18.73;13.32;;;;;;;5.80;100.00;100043.63;4975252;28;20479;-76
2021/09/22 04:51:47;;;;;;;20.50;14.15;;;;;;;5.85;100.00;100047.19;4974851;28;20030;-76
2021/09/22 04:54:12;;;;;;;19.98;14.02;;;;;;;6.01;100.00;100047.53;4975140;28;20027;-76
2021/09/22 04:56:37;;;;;;;27.45;14.70;;;;;;;5.95;100.00;100044.81;4974821;28;20019;-77
2021/09/22 04:59:03;;;;;;;19.77;13.90;;;;;;;5.98;100.00;100047.44;4976001;28;20027;-76
2021/09/22 05:01:28;;;;;;;21.35;14.60;;;;;;;5.89;100.00;100041.22;4979726;28;20110;-76
2021/09/22 05:03:54;;;;;;;21.70;14.60;;;;;;;5.88;100.00;100047.22;4975989;28;20023;-76
2021/09/22 05:06:19;;;;;;;18.23;14.50;;;;;;;6.00;100.00;100050.94;4979112;28;20046;-76
2021/09/22 05:08:45;;;;;;;19.52;14.38;;;;;;;5.98;99.90;100048.31;4977432;28;20063;-76
2021/09/22 05:11:10;;;;;;;20.45;13.82;;;;;;;5.94;99.84;100056.81;4982415;28;20486;-76
2021/09/22 05:13:36;;;;;;;21.50;13.93;;;;;;;6.01;99.75;100055.25;4984490;28;20026;-76
2021/09/22 05:16:01;;;;;;;15.60;11.90;;;;;;;6.00;99.49;100056.09;4981051;28;20035;-76
2021/09/22 05:18:27;;;;;;;18.35;13.30;;;;;;;5.99;98.98;100056.91;4986655;28;20030;-76
2021/09/22 05:20:52;;;;;;;18.20;12.88;;;;;;;6.07;99.34;100055.38;4985431;28;20050;-76
2021/09/22 05:23:17;;;;;;;18.27;13.60;;;;;;;5.99;98.84;100049.19;4979436;28;20117;-76
2021/09/22 05:25:43;;;;;;;17.20;13.05;;;;;;;5.92;98.82;100054.19;4979823;28;20030;-76
2021/09/22 05:28:08;;;;;;;16.35;12.27;;;;;;;5.97;99.10;100050.88;4983642;28;20109;-76
2021/09/22 05:30:33;;;;;;;20.55;12.77;;;;;;;5.97;98.68;100061.16;4977194;28;20022;-76
2021/09/22 05:32:59;;;;;;;18.20;12.85;;;;;;;6.07;98.49;100057.94;4978851;28;20026;-76
2021/09/22 05:35:25;;;;;;;18.27;13.07;;;;;;;6.13;98.23;100063.19;4979773;28;20117;-76
2021/09/22 05:37:52;;;;;;;16.02;12.85;;;;;;;6.15;97.84;100061.53;4982609;28;20026;-76
2021/09/22 05:40:18;;;;;;;15.48;13.00;;;;;;;6.27;97.38;100066.91;4982353;28;20467;-76
2021/09/22 05:42:43;;;;;;;18.73;12.73;;;;;;;6.30;97.08;100059.28;4975566;28;20110;-76
2021/09/22 05:45:09;;;;;;;15.23;12.10;;;;;;;6.24;96.72;100061.72;4983640;28;20038;-76
2021/09/22 05:47:34;;;;;;;18.15;12.52;;;;;;;6.29;96.83;100057.53;4978189;28;20033;-76
2021/09/22 05:50:00;;;;;;;15.93;12.82;;;;;;;6.39;96.89;100069.75;4981949;28;20458;-76
2021/09/22 05:52:26;;;;;;;18.73;13.57;;;;;;;6.84;97.09;100061.13;4983319;28;20036;-76
2021/09/22 05:54:52;;;;;;;16.98;12.10;;;;;;;7.08;94.00;100060.69;4982424;28;20058;-76
2021/09/22 05:57:17;;;;;;;17.00;11.93;;;;;;;7.24;92.10;100066.09;4983589;28;20030;-76
2021/09/22 05:59:44;;;;;;;14.93;11.50;;;;;;;8.04;88.31;100057.81;4980142;28;20023;-76
2021/09/22 06:02:09;;;;;;;15.43;10.45;;;;;;;8.01;87.47;100057.75;4980115;28;20084;-76
2021/09/22 06:04:35;;;;;;;12.40;10.23;;;;;;;8.38;86.33;100059.13;4974666;28;20027;-76
2021/09/22 06:07:00;;;;;;;12.00;10.57;;;;;;;8.84;84.54;100054.44;4981023;28;20092;-76
2021/09/22 06:09:25;;;;;;;16.05;10.70;;;;;;;8.81;83.32;100055.28;4982536;28;20018;-76
2021/09/22 06:11:51;;;;;;;16.75;10.77;;;;;;;9.62;79.90;100053.34;4981373;28;20030;-76
2021/09/22 06:14:17;;;;;;;11.57;8.82;;;;;;;9.93;77.17;100054.38;4979596;28;20031;-76
2021/09/22 06:16:43;;;;;;;14.45;9.77;;;;;;;10.41;76.22;100052.91;4976836;28;20230;-76
2021/09/22 06:19:09;;;;;;;11.27;8.68;;;;;;;10.26;75.33;100058.03;4978464;28;20029;-76
2021/09/22 06:21:36;;;;;;;15.85;8.35;;;;;;;10.68;73.65;100048.63;4984169;28;20038;-76
2021/09/22 06:24:01;;;;;;;10.88;8.43;;;;;;;9.75;77.30;100049.09;4977146;28;20038;-76
2021/09/22 06:26:27;;;;;;;11.38;9.00;;;;;;;9.90;76.85;100054.34;4985502;28;20201;-76
2021/09/22 06:28:53;;;;;;;13.02;9.95;;;;;;;9.81;77.33;100054.31;4976119;28;20522;-76
2021/09/22 06:31:19;;;;;;;13.95;9.95;;;;;;;9.10;79.75;100062.44;4974838;28;20023;-76
2021/09/22 06:33:44;;;;;;;14.25;9.00;;;;;;;9.87;77.90;100049.19;4980539;28;20041;-76
2021/09/22 06:36:10;;;;;;;13.77;10.25;;;;;;;8.99;80.70;100065.78;4981551;28;20026;-76
2021/09/22 06:38:36;;;;;;;12.40;10.00;;;;;;;8.50;82.47;100070.44;4977012;28;20018;-76
2021/09/22 06:41:02;;;;;;;12.10;10.05;;;;;;;8.66;83.26;100068.06;4985465;28;20018;-76
2021/09/22 06:43:27;;;;;;;14.73;10.73;;;;;;;8.50;83.73;100067.84;4976991;28;20028;-76
2021/09/22 06:45:52;;;;;;;15.15;10.68;;;;;;;8.22;85.35;100068.38;4977156;28;20109;-76
2021/09/22 06:48:18;;;;;;;15.73;10.45;;;;;;;8.93;82.83;100070.03;4979274;28;20050;-76
2021/09/22 06:50:44;;;;;;;15.98;10.93;;;;;;;8.27;84.48;100074.47;4978311;28;20353;-76
2021/09/22 06:53:09;;;;;;;14.90;10.95;;;;;;;8.41;84.77;100070.38;4984650;28;20368;-76
2021/09/22 06:55:35;;;;;;;13.43;11.63;;;;;;;8.80;84.23;100074.22;4977999;28;20026;-76
2021/09/22 06:58:01;;;;;;;15.07;11.38;;;;;;;9.00;83.41;100075.28;4983870;28;20018;-76
2021/09/22 07:00:27;;;;;;;13.55;11.30;;;;;;;9.05;83.25;100069.28;4978437;28;20018;-76
2021/09/22 07:02:53;;;;;;;18.05;11.82;;;;;;;9.62;80.78;100074.06;4979139;28;20027;-76
2021/09/22 07:05:18;;;;;;;14.18;10.40;;;;;;;9.73;79.55;100074.13;4977653;28;20045;-77
2021/09/22 07:07:46;;;;;;;11.38;9.98;;;;;;;9.45;80.42;100075.66;4976303;28;20035;-77
2021/09/22 07:10:15;;;;;;;16.48;10.55;;;;;;;9.42;80.98;100081.66;4978671;28;20101;-77
2021/09/22 07:12:41;;;;;;;13.98;10.77;;;;;;;9.63;79.81;100078.38;4984752;28;20102;-77
2021/09/22 07:15:07;;;;;;;20.17;10.93;;;;;;;9.62;80.42;100078.34;4976483;28;20109;-77
2021/09/22 07:17:32;;;;;;;16.30;11.52;;;;;;;9.57;80.47;100087.78;4975377;28;20058;-77
2021/09/22 07:19:57;;;;;;;18.33;11.02;;;;;;;10.02;79.43;100080.31;4977148;28;20122;-76
2021/09/22 07:22:23;;;;;;;13.13;10.80;;;;;;;10.10;79.30;100082.94;4978305;28;20031;-76
2021/09/22 07:24:48;;;;;;;16.88;11.18;;;;;;;9.79;80.34;100093.13;4981162;28;20018;-76
2021/09/22 07:27:15;;;;;;;13.88;11.02;;;;;;;9.89;80.58;100083.69;4978548;28;20059;-76
2021/09/22 07:29:40;;;;;;;16.92;11.85;;;;;;;10.56;78.76;100080.56;4978998;28;20027;-76
2021/09/22 07:32:07;;;;;;;17.50;11.15;;;;;;;11.07;76.39;100087.59;4977245;28;20073;-76
2021/09/22 07:34:33;;;;;;;15.52;10.85;;;;;;;10.88;76.47;100080.66;4976597;28;20444;-76
2021/09/22 07:37:00;;;;;;;12.13;10.48;;;;;;;11.35;76.27;100079.81;4980322;28;20138;-76
2021/09/22 07:39:26;;;;;;;13.57;10.73;;;;;;;11.55;74.32;100080.66;4981366;28;20074;-77
2021/09/22 07:41:51;;;;;;;17.65;11.00;;;;;;;10.96;75.14;100088.44;4976706;28;20392;-77
2021/09/22 07:44:17;;;;;;;15.82;11.35;;;;;;;10.48;78.07;100085.72;4971496;28;20046;-77
2021/09/22 07:46:42;;;;;;;14.63;11.93;;;;;;;10.81;76.69;100084.09;4979462;28;20361;-77
2021/09/22 07:49:07;;;;;;;16.35;11.52;;;;;;;10.49;78.08;100092.66;4981507;28;20452;-77
2021/09/22 07:51:33;;;;;;;15.60;12.38;;;;;;;10.27;78.12;100090.84;4978781;28;20082;-77
2021/09/22 07:53:58;;;;;;;15.50;13.23;;;;;;;10.67;77.82;100086.66;4975515;28;20023;-77
2021/09/22 07:56:23;;;;;;;15.15;12.15;;;;;;;11.41;74.33;100086.72;4976902;28;20031;-77
2021/09/22 07:58:49;;;;;;;17.45;12.20;;;;;;;11.44;73.53;100082.41;4982568;28;20088;-77
2021/09/22 08:01:14;;;;;;;15.82;12.02;;;;;;;11.13;74.32;100085.88;4982538;28;20046;-77
2021/09/22 08:03:40;;;;;;;13.73;11.43;;;;;;;11.29;74.02;100082.41;4976459;28;20035;-77
2021/09/22 08:06:06;;;;;;;14.73;11.57;;;;;;;11.45;73.73;100080.69;4979201;28;20050;-77
2021/09/22 08:08:31;;;;;;;14.57;11.02;;;;;;;12.91;70.08;100071.56;4980164;28;20509;-77
2021/09/22 08:10:57;;;;;;;15.27;10.98;;;;;;;14.28;62.52;100065.94;4978418;28;20022;-77
2021/09/22 08:13:22;;;;;;;11.35;9.38;;;;;;;17.28;56.95;100057.88;4979258;28;20030;-77
2021/09/22 08:15:48;;;;;;;12.10;9.25;;;;;;;18.99;50.07;100053.06;4980736;28;20022;-77
2021/09/22 08:18:13;;;;;;;11.57;8.77;;;;;;;18.46;50.38;100064.25;4982611;28;20033;-77
2021/09/22 08:20:39;;;;;;;10.75;8.63;;;;;;;19.26;47.42;100067.94;4980120;28;20021;-77
2021/09/22 08:23:05;;;;;;;13.15;8.55;;;;;;;19.38;46.80;100071.06;4980896;28;20062;-77
2021/09/22 08:25:31;;;;;;;11.68;7.82;;;;;;;19.31;47.36;100064.28;4986806;28;20022;-77
2021/09/22 08:27:56;;;;;;;12.10;9.30;;;;;;;18.73;47.10;100067.88;4981750;28;20105;-77
2021/09/22 08:30:22;;;;;;;10.07;7.07;;;;;;;20.95;44.11;100068.00;4978613;28;20391;-77
2021/09/22 08:32:47;;;;;;;9.43;7.72;;;;;;;21.68;42.65;100063.28;4989564;28;20058;-77
2021/09/22 08:35:13;;;;;;;12.38;8.02;;;;;;;20.40;43.00;100067.44;4978330;28;20023;-77
2021/09/22 08:37:38;;;;;;;10.70;8.02;;;;;;;20.91;42.26;100070.81;4978543;28;20023;-77
2021/09/22 08:40:06;;;;;;;12.40;8.90;;;;;;;18.68;45.67;100072.41;4983021;28;20019;-77
2021/09/22 08:42:32;;;;;;;10.30;7.05;;;;;;;19.11;46.63;100073.69;4985172;28;20032;-77
2021/09/22 08:44:58;;;;;;;15.35;7.60;;;;;;;18.85;45.71;100071.00;4979732;28;20026;-77
2021/09/22 08:47:24;;;;;;;9.18;8.25;;;;;;;19.81;44.93;100067.00;4985535;28;20026;-77
2021/09/22 08:49:51;;;;;;;8.52;7.68;;;;;;;19.52;45.52;100068.81;4982725;28;20413;-77
2021/09/22 08:52:17;;;;;;;8.00;7.20;;;;;;;21.66;41.71;100065.97;4980085;28;20026;-77
2021/09/22 08:54:43;;;;;;;9.25;8.35;;;;;;;19.79;43.24;100071.47;4979698;28;20527;-77
2021/09/22 08:57:08;;;;;;;9.30;8.40;;;;;;;19.93;42.81;100069.22;4988802;28;20018;-77
2021/09/22 08:59:33;;;;;;;8.52;7.60;;;;;;;21.25;40.98;100068.53;4973249;28;20519;-77
2021/09/22 09:02:15;;;;;;;8.77;7.82;;;;;;;21.33;39.46;100070.91;4976557;28;20023;-77
2021/09/22 09:04:42;;;;;;;8.32;6.90;;;;;;;22.72;37.47;100064.72;4973638;28;20388;-77
2021/09/22 09:07:09;;;;;;;9.07;7.40;;;;;;;20.78;40.93;100075.69;4978928;28;20086;-78
2021/09/22 09:09:39;;;;;;;9.77;6.95;;;;;;;23.39;37.96;100057.97;4983414;28;20046;-78
2021/09/22 09:12:18;;;;;;;8.57;6.90;;;;;;;22.90;38.37;100062.16;4983339;28;20092;-78
2021/09/22 09:14:58;;;;;;;6.22;5.65;;;;;;;25.66;32.32;100049.06;4982532;28;20062;-78
2021/09/22 09:17:42;;;;;;;7.30;5.80;;;;;;;24.73;31.86;100052.66;4976985;28;20049;-78
2021/09/22 09:20:10;;;;;;;8.48;6.95;;;;;;;24.52;32.70;100056.53;4981281;28;20018;-78
2021/09/22 09:22:35;;;;;;;8.77;6.00;;;;;;;23.75;33.50;100055.28;4980806;28;20031;-78
2021/09/22 09:25:01;;;;;;;7.97;5.38;;;;;;;23.92;32.28;100049.09;4985745;28;20081;-78
2021/09/22 09:27:30;;;;;;;6.50;5.07;;;;;;;25.72;30.15;100043.38;4980173;28;20030;-78
2021/09/22 09:29:58;;;;;;;6.40;5.50;;;;;;;26.10;29.35;100037.56;4982697;28;20384;-78
2021/09/22 09:32:26;;;;;;;6.10;5.15;;;;;;;26.37;28.37;100035.84;4984715;28;20073;-78
2021/09/22 09:34:56;;;;;;;7.50;5.55;;;;;;;25.55;30.14;100036.44;4975777;28;20034;-77
2021/09/22 09:37:39;;;;;;;5.20;4.70;;;;;;;26.87;26.78;100037.09;4973592;28;20026;-77
2021/09/22 09:40:40;;;;;;;5.18;4.68;;;;;;;26.17;26.98;100033.59;4976173;28;20046;-77
2021/09/22 09:43:09;;;;;;;5.05;4.55;;;;;;;25.57;28.87;100017.75;4983043;28;20113;-77
2021/09/22 09:45:39;;;;;;;4.93;3.95;;;;;;;25.94;28.08;100021.75;4982515;28;20069;-77
2021/09/22 09:48:07;;;;;;;4.78;4.38;;;;;;;26.71;28.02;100023.09;4978076;28;20030;-77
2021/09/22 09:50:52;;;;;;;6.90;4.90;;;;;;;25.86;28.88;100014.22;4982822;28;20102;-77
2021/09/22 09:53:34;;;;;;;9.25;4.30;;;;;;;24.99;29.18;100015.84;4983075;28;20027;-77
2021/09/22 09:56:01;;;;;;;9.13;5.68;;;;;;;26.18;28.11;100014.03;4978805;28;20037;-77
2021/09/22 09:58:48;;;;;;;3.47;3.10;;;;;;;25.01;30.20;100014.00;4980467;28;20054;-77
2021/09/22 10:01:17;;;;;;;4.93;3.30;;;;;;;27.01;27.87;100003.41;4980118;28;20031;-77
2021/09/22 10:03:43;;;;;;;3.53;3.22;;;;;;;25.84;30.00;100002.00;4974634;28;20034;-77
2021/09/22 10:06:09;;;;;;;5.63;3.00;;;;;;;27.54;27.19;100001.63;4977565;28;20034;-78
2021/09/22 10:08:35;;;;;;;3.05;2.83;;;;;;;26.22;29.94;99998.78;4978051;28;20472;-79
2021/09/22 10:11:03;;;;;;;4.82;3.00;;;;;;;27.84;26.72;99991.53;4982167;28;20026;-78
2021/09/22 10:13:31;;;;;;;3.60;3.22;;;;;;;26.94;27.91;99991.50;4975668;28;20019;-79
2021/09/22 10:15:57;;;;;;;4.40;3.38;;;;;;;26.32;29.99;99990.13;4985373;28;20085;-78
2021/09/22 10:18:24;;;;;;;6.25;2.80;;;;;;;26.20;30.46;99985.56;4978132;28;20019;-78
2021/09/22 10:20:50;;;;;;;6.70;3.10;;;;;;;26.80;27.47;99979.94;4986178;28;20023;-78
2021/09/22 10:23:16;;;;;;;4.97;2.70;;;;;;;28.64;25.38;99977.84;4978028;28;20018;-78
2021/09/22 10:25:42;;;;;;;5.80;3.05;;;;;;;27.70;27.32;99980.13;4974375;28;20390;-78
2021/09/22 10:28:08;;;;;;;3.63;2.97;;;;;;;27.79;27.26;99972.38;4986653;28;20439;-82
2021/09/22 10:30:38;;;;;;;3.15;2.85;;;;;;;27.55;26.35;99974.03;4976756;28;20019;-80
2021/09/22 10:33:04;;;;;;;3.50;2.55;;;;;;;27.46;27.25;99972.00;4976384;28;20019;-80
2021/09/22 10:35:39;;;;;;;13.50;10.90;;;;;;;27.67;26.72;99975.88;4973907;28;20081;-80
2021/09/22 10:38:39;;;;;;;4.25;3.83;;;;;;;29.06;25.54;99978.28;4973253;28;20022;-80
2021/09/22 10:41:05;;;;;;;3.38;2.70;;;;;;;27.75;26.87;99972.69;4978548;28;20418;-80
2021/09/22 10:43:37;;;;;;;3.80;2.80;;;;;;;28.09;27.07;99972.03;4981325;28;20018;-80
2021/09/22 10:46:11;;;;;;;3.50;2.97;;;;;;;26.17;29.99;99977.81;4981920;28;20494;-79
2021/09/22 10:48:54;;;;;;;3.20;2.50;;;;;;;27.32;28.50;99965.84;4981763;28;20446;-79
2021/09/22 10:51:33;;;;;;;4.22;2.88;;;;;;;28.37;26.93;99965.56;4976113;28;20022;-80
2021/09/22 10:54:04;;;;;;;;;;;;;;;28.35;26.88;99962.16;4975425;28;20026;-79
2021/09/22 10:56:29;;;;;;;11.88;8.25;;;;;;;28.75;27.24;99955.72;4976437;28;19961;-79
2021/09/22 10:59:02;;;;;;;3.17;2.55;;;;;;;28.14;26.88;99958.34;4978434;28;20049;-79
2021/09/22 11:01:39;;;;;;;4.03;2.70;;;;;;;29.66;25.22;99950.56;4982196;28;20069;-79
2021/09/22 11:04:06;;;;;;;3.08;2.60;;;;;;;29.05;25.75;99949.91;4973063;28;20034;-79
2021/09/22 11:06:47;;;;;;;4.60;3.58;;;;;;;28.68;26.72;99942.00;4980194;28;20078;-79
2021/09/22 11:09:21;;;;;;;4.43;2.40;;;;;;;27.67;27.89;99935.91;4978727;28;20022;-79
2021/09/22 11:11:52;;;;;;;2.53;2.33;;;;;;;28.09;28.15;99939.16;4985048;28;20026;-79
2021/09/22 11:14:27;;;;;;;2.90;2.67;;;;;;;26.43;30.71;99930.13;4974093;28;20467;-79
2021/09/22 11:16:53;;;;;;;4.10;3.03;;;;;;;26.67;29.52;99935.63;4979081;28;20038;-79
2021/09/22 11:19:20;;;;;;;3.42;3.08;;;;;;;25.97;30.44;99938.38;4981733;28;20319;-79
2021/09/22 11:21:47;;;;;;;4.65;3.25;;;;;;;27.25;29.50;99927.28;4985834;28;20038;-79
2021/09/22 11:24:14;;;;;;;4.93;2.60;;;;;;;27.24;28.23;99920.25;4983601;28;20038;-79
2021/09/22 11:26:52;;;;;;;6.95;5.22;;;;;;;27.30;29.08;99919.81;4975232;28;20026;-79
2021/09/22 11:29:28;;;;;;;5.10;4.60;;;;;;;28.84;27.71;99921.19;4978928;28;20094;-79
2021/09/22 11:31:53;;;;;;;3.72;3.00;;;;;;;28.25;27.19;99923.78;4978791;28;20022;-79
2021/09/22 11:34:29;;;;;;;7.05;6.35;;;;;;;28.88;27.36;99912.00;4978870;28;20090;-80
2021/09/22 11:37:09;;;;;;;2.97;2.60;;;;;;;26.46;30.01;99911.31;4976965;28;20510;-80
2021/09/22 11:39:36;;;;;;;2.50;2.30;;;;;;;27.27;29.59;99909.41;4980420;28;20022;-82
2021/09/22 11:42:02;;;;;;;4.60;2.33;;;;;;;26.21;30.59;99904.91;4987182;28;20401;-82
2021/09/22 11:44:29;;;;;;;3.00;2.70;;;;;;;24.62;33.40;99911.94;4981764;28;20475;-82
2021/09/22 11:46:58;;;;;;;5.70;2.88;;;;;;;25.25;32.18;99901.16;4976492;28;20031;-82
2021/09/22 11:49:30;;;;;;;;;;;;;;;24.86;32.91;99899.91;4977246;28;20018;-82
2021/09/22 11:52:05;;;;;;;4.97;2.08;;;;;;;24.79;34.02;99903.84;4986329;28;19949;-82
2021/09/22 11:54:30;;;;;;;2.17;1.98;;;;;;;24.89;33.70;99893.56;4984527;28;20022;-82
2021/09/22 11:57:07;;;;;;;4.07;2.45;;;;;;;25.10;33.65;99896.78;4981428;28;20022;-82
2021/09/22 11:59:36;;;;;;;3.30;2.10;;;;;;;25.44;32.58;99900.03;4977446;28;20543;-82
2021/09/22 12:02:02;;;;;;;4.10;1.85;;;;;;;23.84;35.30;99903.06;4982824;28;20030;-82
2021/09/22 12:04:41;;;;;;;2.63;2.40;;;;;;;22.36;38.12;99902.72;4979389;28;20030;-82
2021/09/22 12:07:07;;;;;;;3.28;2.30;;;;;;;20.77;41.65;99902.75;4984507;28;20098;-82
2021/09/22 12:09:36;;;;;;;3.70;2.65;;;;;;;20.28;43.20;99912.63;4980491;28;20054;-82
2021/09/22 12:12:06;;;;;;;2.92;2.35;;;;;;;22.16;39.43;99885.19;4983824;28;20046;-82
2021/09/22 12:14:31;;;;;;;5.25;2.95;;;;;;;22.52;39.31;99888.66;4981960;28;20030;-82
2021/09/22 12:17:07;;;;;;;3.75;2.10;;;;;;;22.28;41.47;99885.44;4983307;28;20030;-82
2021/09/22 12:19:33;;;;;;;5.38;3.72;;;;;;;22.26;39.32;99876.75;4984552;28;20027;-82
2021/09/22 12:21:59;;;;;;;6.43;3.33;;;;;;;21.67;41.06;99875.09;4988633;28;20427;-82
2021/09/22 12:24:25;;;;;;;6.03;2.63;;;;;;;21.76;41.62;99872.06;4982506;28;20026;-82
2021/09/22 12:26:53;;;;;;;2.60;1.95;;;;;;;22.17;40.54;99869.25;4984471;28;20109;-79
2021/09/22 12:29:19;;;;;;;3.20;2.17;;;;;;;21.60;40.95;99871.03;4981048;28;20060;-78
2021/09/22 12:31:45;;;;;;;4.43;2.55;;;;;;;21.37;40.72;99863.28;4983811;28;20034;-79
2021/09/22 12:34:16;;;;;;;3.72;1.88;;;;;;;22.05;41.23;99846.94;4988835;28;20084;-78
2021/09/22 12:36:47;;;;;;;2.30;1.88;;;;;;;22.74;38.50;99846.19;4983807;28;20030;-78
2021/09/22 12:39:20;;;;;;;2.35;1.90;;;;;;;22.29;38.99;99834.34;4979648;28;20046;-78
2021/09/22 12:42:06;;;;;;;2.63;1.73;;;;;;;22.58;40.07;99850.53;4986647;28;20042;-78
2021/09/22 12:44:52;;;;;;;3.00;1.85;;;;;;;22.18;40.45;99846.34;4979673;28;20026;-84
2021/09/22 12:47:17;;;;;;;2.58;1.73;;;;;;;21.32;43.01;99841.56;4979915;28;20030;-77
2021/09/22 12:49:43;;;;;;;4.10;1.50;;;;;;;21.64;41.33;99835.66;4977016;28;20018;-77
2021/09/22 12:52:20;;;;;;;6.05;1.67;;;;;;;20.79;41.34;99830.66;4978346;28;20023;-77
2021/09/22 12:54:45;;;;;;;2.20;1.23;;;;;;;20.78;42.52;99823.66;4983825;28;20034;-77
2021/09/22 12:57:14;;;;;;;1.88;1.58;;;;;;;20.97;42.64;99830.75;4980096;28;20404;-77
2021/09/22 12:59:39;;;;;;;2.40;1.38;;;;;;;20.59;43.34;99830.63;4978115;28;20085;-77
2021/09/22 13:02:05;;;;;;;5.40;1.73;;;;;;;20.91;42.79;99824.00;4984196;28;20026;-77
2021/09/22 13:04:33;;;;;;;5.45;1.40;;;;;;;21.31;42.15;99816.97;4980113;28;20106;-77
2021/09/22 13:06:59;;;;;;;1.98;1.50;;;;;;;20.61;44.54;99815.63;4975918;28;20046;-77
2021/09/22 13:09:35;;;;;;;2.10;1.52;;;;;;;20.65;44.25;99808.47;4985267;28;20049;-77
2021/09/22 13:12:01;;;;;;;1.70;1.60;;;;;;;21.23;43.56;99814.66;4975205;28;20030;-77
2021/09/22 13:14:36;;;;;;;1.65;1.50;;;;;;;21.05;42.93;99804.94;4979588;28;20022;-77
2021/09/22 13:17:02;;;;;;;2.55;1.42;;;;;;;19.26;45.53;99815.66;4984414;28;20117;-77
2021/09/22 13:19:29;;;;;;;1.38;1.10;;;;;;;19.84;47.21;99802.09;4981083;28;20119;-77
2021/09/22 13:21:57;;;;;;;3.10;1.60;;;;;;;20.14;44.81;99799.16;4987388;28;20110;-77
2021/09/22 13:24:24;;;;;;;4.22;1.67;;;;;;;18.57;48.96;99796.22;4975678;28;20022;-77
2021/09/22 13:26:52;;;;;;;5.43;1.75;;;;;;;19.19;47.88;99793.13;4986979;28;20388;-77
2021/09/22 13:29:18;;;;;;;2.28;1.33;;;;;;;19.43;47.81;99782.59;4976621;28;20476;-77
2021/09/22 13:31:48;;;;;;;2.17;1.50;;;;;;;19.80;46.62;99778.59;4977422;28;20476;-77
2021/09/22 13:34:15;;;;;;;4.18;1.70;;;;;;;19.63;46.46;99777.50;4974167;28;20078;-77
2021/09/22 13:36:40;;;;;;;5.43;1.77;;;;;;;19.71;45.82;99774.56;4981847;28;20085;-77
2021/09/22 13:39:09;;;;;;;4.20;2.08;;;;;;;19.54;46.24;99772.56;4983422;28;20109;-77
2021/09/22 13:41:34;;;;;;;6.45;1.85;;;;;;;19.45;45.97;99775.53;4979981;28;20021;-77
2021/09/22 13:44:04;;;;;;;1.95;1.60;;;;;;;19.91;46.48;99774.59;4980512;28;20490;-77
2021/09/22 13:46:30;;;;;;;3.40;1.67;;;;;;;20.00;45.22;99771.59;4978614;28;20027;-77
2021/09/22 13:48:55;;;;;;;1.60;1.40;;;;;;;20.11;45.26;99768.53;4984721;28;20501;-77
2021/09/22 13:51:21;;;;;;;4.03;1.55;;;;;;;20.59;45.42;99764.78;4974714;28;20114;-77
2021/09/22 13:53:46;;;;;;;1.88;1.70;;;;;;;20.42;44.77;99773.38;4987838;28;20073;-77
2021/09/22 13:56:13;;;;;;;2.90;1.70;;;;;;;19.84;45.99;99774.94;4980406;28;20022;-77
2021/09/22 13:58:39;;;;;;;3.50;1.73;;;;;;;19.51;46.87;99776.16;4977624;28;20023;-76
2021/09/22 14:01:05;;;;;;;2.83;2.05;;;;;;;19.63;46.67;99772.25;4979119;28;20019;-77
2021/09/22 14:03:32;;;;;;;3.72;1.90;;;;;;;19.41;48.40;99763.41;4975926;28;20035;-77
2021/09/22 14:05:58;;;;;;;2.90;1.63;;;;;;;19.95;45.85;99756.94;4979915;28;20382;-77
2021/09/22 14:08:25;;;;;;;2.58;1.67;;;;;;;19.80;46.86;99765.44;4978713;28;20019;-77
2021/09/22 14:10:50;;;;;;;3.53;2.15;;;;;;;19.95;45.60;99756.94;4979198;28;20019;-77
2021/09/22 14:13:17;;;;;;;6.20;1.92;;;;;;;19.68;46.72;99765.03;4980678;28;20023;-77
2021/09/22 14:15:46;;;;;;;1.60;1.50;;;;;;;19.64;47.96;99762.56;4979438;28;20042;-77
2021/09/22 14:18:14;;;;;;;3.90;1.65;;;;;;;19.77;47.84;99763.78;4978211;28;20484;-77
2021/09/22 14:20:42;;;;;;;4.10;1.55;;;;;;;20.17;46.79;99762.19;4977505;28;20535;-77
2021/09/22 14:23:08;;;;;;;2.22;1.70;;;;;;;19.95;45.88;99756.94;4974429;28;20026;-77
2021/09/22 14:25:36;;;;;;;6.45;1.90;;;;;;;20.34;45.83;99749.16;4979238;28;20349;-81
2021/09/22 14:28:02;;;;;;;1.88;1.52;;;;;;;20.32;46.78;99756.28;4977603;28;20031;-81
2021/09/22 14:30:27;;;;;;;3.67;1.60;;;;;;;20.17;46.68;99757.78;4973421;28;20465;-81
2021/09/22 14:32:53;;;;;;;3.92;1.98;;;;;;;20.20;46.68;99746.25;4972804;28;20031;-81
2021/09/22 14:35:20;;;;;;;4.55;1.80;;;;;;;19.76;46.17;99746.28;4976560;28;20030;-81
2021/09/22 14:37:47;;;;;;;3.67;1.65;;;;;;;19.53;47.69;99741.91;4977804;28;20081;-81
2021/09/22 14:40:14;;;;;;;2.97;1.40;;;;;;;19.94;47.28;99745.56;4977999;28;20408;-82
2021/09/22 14:42:41;;;;;;;3.47;1.75;;;;;;;20.22;46.65;99741.78;4976892;28;20031;-82
2021/09/22 14:45:09;;;;;;;3.40;1.90;;;;;;;20.06;46.29;99744.19;4985390;28;20028;-82
2021/09/22 14:47:36;;;;;;;3.33;1.97;;;;;;;19.32;48.68;99753.25;4976358;28;20041;-82
2021/09/22 14:50:06;;;;;;;3.70;1.42;;;;;;;19.85;46.87;99737.19;4982655;28;20023;-76
2021/09/22 14:52:32;;;;;;;2.80;1.58;;;;;;;19.84;46.75;99738.97;4981889;28;20022;-82
2021/09/22 14:54:57;;;;;;;5.63;2.15;;;;;;;19.29;48.47;99746.34;4981603;28;20026;-81
2021/09/22 14:57:23;;;;;;;7.30;1.88;;;;;;;19.01;49.68;99751.78;4979910;28;20028;-81
2021/09/22 14:59:48;;;;;;;3.25;1.60;;;;;;;18.77;50.81;99744.81;4974211;28;20019;-81
2021/09/22 15:02:14;;;;;;;4.65;1.88;;;;;;;18.50;50.05;99739.56;4981094;28;20022;-81
2021/09/22 15:04:39;;;;;;;1.95;1.58;;;;;;;18.44;51.45;99735.41;4972440;28;20049;-81
2021/09/22 15:07:06;;;;;;;6.10;2.10;;;;;;;18.75;49.77;99737.81;4981792;28;20025;-81
2021/09/22 15:09:31;;;;;;;6.30;2.00;;;;;;;18.74;50.03;99733.47;4978137;28;20036;-81
2021/09/22 15:11:56;;;;;;;4.15;1.55;;;;;;;18.87;48.69;99740.94;4986869;28;20097;-81
2021/09/22 15:14:22;;;;;;;4.25;2.00;;;;;;;18.75;49.26;99735.19;4972523;28;20097;-81
2021/09/22 15:16:47;;;;;;;2.30;1.67;;;;;;;18.98;48.82;99730.88;4979821;28;20062;-81
2021/09/22 15:19:13;;;;;;;2.08;1.55;;;;;;;18.96;48.57;99735.34;4979462;28;20045;-82
2021/09/22 15:21:38;;;;;;;3.85;1.80;;;;;;;18.52;50.27;99727.28;4979871;28;20022;-81
2021/09/22 15:24:04;;;;;;;2.10;1.83;;;;;;;18.69;49.67;99724.06;4978022;28;20084;-81
2021/09/22 15:26:29;;;;;;;3.22;1.90;;;;;;;18.77;49.59;99726.41;4980713;28;20094;-81
2021/09/22 15:28:54;;;;;;;2.88;1.98;;;;;;;18.93;49.20;99730.19;4972707;28;20476;-80
2021/09/22 15:31:20;;;;;;;3.90;1.73;;;;;;;18.85;50.46;99719.09;4974583;28;20023;-82
2021/09/22 15:33:46;;;;;;;3.70;1.90;;;;;;;18.68;51.62;99720.59;4975638;28;20492;-82
2021/09/22 15:36:11;;;;;;;4.60;1.70;;;;;;;18.86;50.94;99721.69;4974050;28;20030;-82
2021/09/22 15:38:37;;;;;;;4.63;1.92;;;;;;;18.77;51.80;99718.53;4974595;28;20023;-81
2021/09/22 15:41:03;;;;;;;3.75;2.08;;;;;;;18.53;51.62;99717.63;4978892;28;20472;-81